sensor_id;sensor_type;location;lat;lon;timestamp;P1;durP1;ratioP1;P2;durP2;ratioP2
43297;SDS011;28892;55.640;37.532;2022-07-29T12:48:36;2.97;;;1.30;;
43297;SDS011;28892;55.640;37.532;2022-07-29T12:51:04;2.33;;;1.42;;
43297;SDS011;28892;55.640;37.532;2022-07-29T12:53:31;4.05;;;1.80;;
43297;SDS011;28892;55.640;37.532;2022-07-29T12:55:58;1.75;;;1.13;;
43297;SDS011;28892;55.640;37.532;2022-07-29T12:58:27;2.47;;;1.30;;
43297;SDS011;28892;55.640;37.532;2022-07-29T13:09:14;4.10;;;1.20;;
43297;SDS011;28892;55.640;37.532;2022-07-29T13:17:13;3.25;;;1.77;;
43297;SDS011;28892;55.640;37.532;2022-07-29T13:22:16;2.35;;;1.40;;
43297;SDS011;28892;55.640;37.532;2022-07-29T13:27:26;2.83;;;1.30;;
43297;SDS011;28892;55.640;37.532;2022-07-29T13:29:54;1.38;;;1.20;;
43297;SDS011;28892;55.640;37.532;2022-07-29T13:32:23;1.95;;;1.20;;
43297;SDS011;28892;55.640;37.532;2022-07-29T13:34:50;3.55;;;1.15;;
43297;SDS011;28892;55.640;37.532;2022-07-29T13:37:16;1.63;;;1.00;;
43297;SDS011;28892;55.640;37.532;2022-07-29T13:39:42;1.88;;;1.10;;
43297;SDS011;28892;55.640;37.532;2022-07-29T13:42:08;2.15;;;1.40;;
43297;SDS011;28892;55.640;37.532;2022-07-29T13:44:34;1.88;;;1.10;;
43297;SDS011;28892;55.640;37.532;2022-07-29T13:47:00;1.63;;;1.15;;
43297;SDS011;28892;55.640;37.532;2022-07-29T13:49:26;1.35;;;1.00;;
43297;SDS011;28892;55.640;37.532;2022-07-29T13:51:52;2.40;;;1.02;;
43297;SDS011;28892;55.640;37.532;2022-07-29T13:54:18;2.65;;;1.20;;
43297;SDS011;28892;55.640;37.532;2022-07-29T13:56:44;2.08;;;1.10;;
43297;SDS011;28892;55.640;37.532;2022-07-29T13:59:10;4.63;;;1.40;;
43297;SDS011;28892;55.640;37.532;2022-07-29T14:01:36;1.60;;;1.27;;
43297;SDS011;28892;55.640;37.532;2022-07-29T14:04:02;1.95;;;1.30;;
43297;SDS011;28892;55.640;37.532;2022-07-29T14:06:28;2.20;;;1.38;;
43297;SDS011;28892;55.640;37.532;2022-07-29T14:08:54;4.25;;;1.30;;
43297;SDS011;28892;55.640;37.532;2022-07-29T14:11:20;3.28;;;1.60;;
43297;SDS011;28892;55.640;37.532;2022-07-29T14:13:45;3.33;;;1.38;;
43297;SDS011;28892;55.640;37.532;2022-07-29T14:16:11;3.03;;;1.20;;
43297;SDS011;28892;55.640;37.532;2022-07-29T14:18:37;3.13;;;1.20;;
43297;SDS011;28892;55.640;37.532;2022-07-29T14:21:03;2.08;;;1.70;;
43297;SDS011;28892;55.640;37.532;2022-07-29T14:23:29;4.70;;;1.50;;
43297;SDS011;28892;55.640;37.532;2022-07-29T14:25:54;3.95;;;1.70;;
43297;SDS011;28892;55.640;37.532;2022-07-29T14:28:20;7.63;;;1.98;;
43297;SDS011;28892;55.640;37.532;2022-07-29T14:30:46;3.78;;;1.40;;
43297;SDS011;28892;55.640;37.532;2022-07-29T14:33:12;4.80;;;1.42;;
43297;SDS011;28892;55.640;37.532;2022-07-29T14:35:37;1.58;;;1.25;;
43297;SDS011;28892;55.640;37.532;2022-07-29T14:38:03;1.55;;;1.20;;
43297;SDS011;28892;55.640;37.532;2022-07-29T14:40:31;2.60;;;1.20;;
43297;SDS011;28892;55.640;37.532;2022-07-29T14:42:57;2.70;;;1.20;;
43297;SDS011;28892;55.640;37.532;2022-07-29T14:45:23;2.97;;;1.00;;
43297;SDS011;28892;55.640;37.532;2022-07-29T14:47:48;2.63;;;1.20;;
43297;SDS011;28892;55.640;37.532;2022-07-29T14:50:16;2.20;;;1.05;;
43297;SDS011;28892;55.640;37.532;2022-07-29T14:52:42;2.25;;;1.13;;
43297;SDS011;28892;55.640;37.532;2022-07-29T14:55:08;2.30;;;1.20;;
43297;SDS011;28892;55.640;37.532;2022-07-29T14:57:34;2.10;;;1.25;;
43297;SDS011;28892;55.640;37.532;2022-07-29T14:59:59;1.25;;;1.02;;
43297;SDS011;28892;55.640;37.532;2022-07-29T15:02:25;3.22;;;1.15;;
43297;SDS011;28892;55.640;37.532;2022-07-29T15:04:51;3.53;;;1.20;;
43297;SDS011;28892;55.640;37.532;2022-07-29T15:07:17;2.75;;;1.42;;
43297;SDS011;28892;55.640;37.532;2022-07-29T15:09:42;3.15;;;1.20;;
43297;SDS011;28892;55.640;37.532;2022-07-29T15:12:10;3.08;;;1.20;;
43297;SDS011;28892;55.640;37.532;2022-07-29T15:14:36;4.53;;;1.40;;
43297;SDS011;28892;55.640;37.532;2022-07-29T15:17:02;3.33;;;1.20;;
43297;SDS011;28892;55.640;37.532;2022-07-29T15:19:28;1.70;;;1.05;;
43297;SDS011;28892;55.640;37.532;2022-07-29T15:21:53;1.77;;;1.58;;
43297;SDS011;28892;55.640;37.532;2022-07-29T15:24:19;3.13;;;1.30;;
43297;SDS011;28892;55.640;37.532;2022-07-29T15:26:45;2.35;;;1.40;;
43297;SDS011;28892;55.640;37.532;2022-07-29T15:29:11;3.95;;;1.58;;
43297;SDS011;28892;55.640;37.532;2022-07-29T15:31:37;4.13;;;1.45;;
43297;SDS011;28892;55.640;37.532;2022-07-29T15:34:03;2.30;;;1.42;;
43297;SDS011;28892;55.640;37.532;2022-07-29T15:36:29;3.45;;;1.60;;
43297;SDS011;28892;55.640;37.532;2022-07-29T15:38:55;1.45;;;1.35;;
43297;SDS011;28892;55.640;37.532;2022-07-29T15:41:21;3.08;;;1.25;;
43297;SDS011;28892;55.640;37.532;2022-07-29T15:43:47;1.80;;;1.40;;
43297;SDS011;28892;55.640;37.532;2022-07-29T15:46:13;3.80;;;1.70;;
43297;SDS011;28892;55.640;37.532;2022-07-29T15:48:59;1.75;;;1.30;;
43297;SDS011;28892;55.640;37.532;2022-07-29T15:51:26;1.38;;;1.23;;
43297;SDS011;28892;55.640;37.532;2022-07-29T15:53:51;2.25;;;1.60;;
43297;SDS011;28892;55.640;37.532;2022-07-29T15:56:17;1.83;;;1.30;;
43297;SDS011;28892;55.640;37.532;2022-07-29T15:58:43;2.55;;;1.50;;
43297;SDS011;28892;55.640;37.532;2022-07-29T16:01:08;4.28;;;1.58;;
43297;SDS011;28892;55.640;37.532;2022-07-29T16:03:35;6.45;;;1.90;;
43297;SDS011;28892;55.640;37.532;2022-07-29T16:06:00;7.88;;;2.35;;
43297;SDS011;28892;55.640;37.532;2022-07-29T16:08:27;4.07;;;1.63;;
43297;SDS011;28892;55.640;37.532;2022-07-29T16:10:52;3.88;;;1.92;;
43297;SDS011;28892;55.640;37.532;2022-07-29T16:13:18;7.22;;;2.22;;
43297;SDS011;28892;55.640;37.532;2022-07-29T16:15:44;5.18;;;2.33;;
43297;SDS011;28892;55.640;37.532;2022-07-29T16:18:10;5.95;;;2.13;;
43297;SDS011;28892;55.640;37.532;2022-07-29T16:20:38;2.38;;;1.58;;
43297;SDS011;28892;55.640;37.532;2022-07-29T16:23:04;5.03;;;2.00;;
43297;SDS011;28892;55.640;37.532;2022-07-29T16:25:30;5.82;;;2.05;;
43297;SDS011;28892;55.640;37.532;2022-07-29T16:27:56;6.93;;;2.03;;
43297;SDS011;28892;55.640;37.532;2022-07-29T16:30:21;9.43;;;2.35;;
43297;SDS011;28892;55.640;37.532;2022-07-29T16:32:47;6.38;;;2.53;;
43297;SDS011;28892;55.640;37.532;2022-07-29T16:35:13;4.65;;;2.13;;
43297;SDS011;28892;55.640;37.532;2022-07-29T16:37:39;6.85;;;1.65;;
43297;SDS011;28892;55.640;37.532;2022-07-29T16:40:05;17.35;;;2.78;;
43297;SDS011;28892;55.640;37.532;2022-07-29T16:42:32;19.75;;;3.80;;
43297;SDS011;28892;55.640;37.532;2022-07-29T16:44:59;9.07;;;2.35;;
43297;SDS011;28892;55.640;37.532;2022-07-29T16:47:24;9.00;;;2.28;;
43297;SDS011;28892;55.640;37.532;2022-07-29T16:49:50;3.65;;;1.85;;
43297;SDS011;28892;55.640;37.532;2022-07-29T16:52:16;4.32;;;1.75;;
43297;SDS011;28892;55.640;37.532;2022-07-29T16:54:41;6.18;;;1.80;;
43297;SDS011;28892;55.640;37.532;2022-07-29T16:57:07;4.60;;;1.88;;
43297;SDS011;28892;55.640;37.532;2022-07-29T16:59:33;6.65;;;2.20;;
43297;SDS011;28892;55.640;37.532;2022-07-29T17:01:59;11.25;;;2.55;;
43297;SDS011;28892;55.640;37.532;2022-07-29T17:04:27;18.92;;;2.33;;
43297;SDS011;28892;55.640;37.532;2022-07-29T17:06:53;4.57;;;1.67;;
43297;SDS011;28892;55.640;37.532;2022-07-29T17:09:19;14.02;;;2.83;;
43297;SDS011;28892;55.640;37.532;2022-07-29T17:11:45;6.53;;;2.47;;
43297;SDS011;28892;55.640;37.532;2022-07-29T17:14:18;3.95;;;2.38;;
43297;SDS011;28892;55.640;37.532;2022-07-29T17:16:51;20.95;;;5.82;;
43297;SDS011;28892;55.640;37.532;2022-07-29T17:19:19;8.35;;;3.95;;
43297;SDS011;28892;55.640;37.532;2022-07-29T17:21:45;5.25;;;2.30;;
43297;SDS011;28892;55.640;37.532;2022-07-29T17:24:11;4.47;;;2.20;;
43297;SDS011;28892;55.640;37.532;2022-07-29T17:26:37;3.92;;;2.00;;
43297;SDS011;28892;55.640;37.532;2022-07-29T17:29:04;3.47;;;1.70;;
43297;SDS011;28892;55.640;37.532;2022-07-29T17:31:30;7.93;;;2.08;;
43297;SDS011;28892;55.640;37.532;2022-07-29T17:33:56;3.78;;;2.08;;
43297;SDS011;28892;55.640;37.532;2022-07-29T17:36:24;5.20;;;1.90;;
43297;SDS011;28892;55.640;37.532;2022-07-29T17:38:51;3.75;;;2.08;;
43297;SDS011;28892;55.640;37.532;2022-07-29T17:41:19;6.28;;;2.08;;
43297;SDS011;28892;55.640;37.532;2022-07-29T17:43:46;5.07;;;2.20;;
43297;SDS011;28892;55.640;37.532;2022-07-29T17:46:12;4.05;;;2.20;;
43297;SDS011;28892;55.640;37.532;2022-07-29T17:48:38;3.90;;;1.90;;
43297;SDS011;28892;55.640;37.532;2022-07-29T17:51:04;3.30;;;1.70;;
43297;SDS011;28892;55.640;37.532;2022-07-29T17:53:29;2.83;;;1.80;;
43297;SDS011;28892;55.640;37.532;2022-07-29T17:55:55;3.50;;;2.20;;
43297;SDS011;28892;55.640;37.532;2022-07-29T17:58:22;5.03;;;2.58;;
43297;SDS011;28892;55.640;37.532;2022-07-29T18:00:48;4.65;;;2.17;;
43297;SDS011;28892;55.640;37.532;2022-07-29T18:03:13;5.10;;;2.28;;
43297;SDS011;28892;55.640;37.532;2022-07-29T18:05:39;3.50;;;2.10;;
43297;SDS011;28892;55.640;37.532;2022-07-29T18:08:05;2.83;;;1.90;;
43297;SDS011;28892;55.640;37.532;2022-07-29T18:10:31;4.80;;;1.80;;
43297;SDS011;28892;55.640;37.532;2022-07-29T18:12:57;6.32;;;2.08;;
43297;SDS011;28892;55.640;37.532;2022-07-29T18:15:23;4.00;;;2.22;;
43297;SDS011;28892;55.640;37.532;2022-07-29T18:17:48;2.55;;;2.00;;
43297;SDS011;28892;55.640;37.532;2022-07-29T18:20:14;2.72;;;2.05;;
43297;SDS011;28892;55.640;37.532;2022-07-29T18:22:40;5.05;;;1.70;;
43297;SDS011;28892;55.640;37.532;2022-07-29T18:25:05;6.13;;;2.15;;
43297;SDS011;28892;55.640;37.532;2022-07-29T18:27:32;8.00;;;2.53;;
43297;SDS011;28892;55.640;37.532;2022-07-29T18:29:57;3.83;;;2.00;;
43297;SDS011;28892;55.640;37.532;2022-07-29T18:32:23;2.45;;;1.90;;
43297;SDS011;28892;55.640;37.532;2022-07-29T18:34:49;5.10;;;2.25;;
43297;SDS011;28892;55.640;37.532;2022-07-29T18:37:15;4.40;;;2.15;;
43297;SDS011;28892;55.640;37.532;2022-07-29T18:39:42;4.40;;;2.90;;
43297;SDS011;28892;55.640;37.532;2022-07-29T18:42:08;5.10;;;2.45;;
43297;SDS011;28892;55.640;37.532;2022-07-29T18:44:34;2.42;;;1.77;;
43297;SDS011;28892;55.640;37.532;2022-07-29T18:47:00;3.28;;;2.05;;
43297;SDS011;28892;55.640;37.532;2022-07-29T18:49:25;4.55;;;1.80;;
43297;SDS011;28892;55.640;37.532;2022-07-29T18:51:51;3.20;;;2.05;;
43297;SDS011;28892;55.640;37.532;2022-07-29T18:54:17;5.22;;;2.10;;
43297;SDS011;28892;55.640;37.532;2022-07-29T18:56:44;4.80;;;2.25;;
43297;SDS011;28892;55.640;37.532;2022-07-29T18:59:11;5.57;;;2.10;;
43297;SDS011;28892;55.640;37.532;2022-07-29T19:01:41;3.50;;;2.00;;
43297;SDS011;28892;55.640;37.532;2022-07-29T19:04:07;3.08;;;2.28;;
43297;SDS011;28892;55.640;37.532;2022-07-29T19:06:33;5.72;;;2.10;;
43297;SDS011;28892;55.640;37.532;2022-07-29T19:08:59;8.32;;;2.20;;
43297;SDS011;28892;55.640;37.532;2022-07-29T19:11:25;3.10;;;2.25;;
43297;SDS011;28892;55.640;37.532;2022-07-29T19:13:51;3.03;;;2.28;;
43297;SDS011;28892;55.640;37.532;2022-07-29T19:16:16;3.72;;;2.50;;
43297;SDS011;28892;55.640;37.532;2022-07-29T19:18:42;3.47;;;2.20;;
43297;SDS011;28892;55.640;37.532;2022-07-29T19:21:09;2.97;;;2.05;;
43297;SDS011;28892;55.640;37.532;2022-07-29T19:23:35;2.25;;;2.05;;
43297;SDS011;28892;55.640;37.532;2022-07-29T19:26:01;5.45;;;2.10;;
43297;SDS011;28892;55.640;37.532;2022-07-29T19:28:26;4.03;;;1.85;;
43297;SDS011;28892;55.640;37.532;2022-07-29T19:30:52;4.57;;;2.47;;
43297;SDS011;28892;55.640;37.532;2022-07-29T19:33:18;3.50;;;2.08;;
43297;SDS011;28892;55.640;37.532;2022-07-29T19:35:45;3.78;;;2.25;;
43297;SDS011;28892;55.640;37.532;2022-07-29T19:38:11;3.40;;;2.10;;
43297;SDS011;28892;55.640;37.532;2022-07-29T19:40:37;4.30;;;2.03;;
43297;SDS011;28892;55.640;37.532;2022-07-29T19:43:04;5.65;;;2.17;;
43297;SDS011;28892;55.640;37.532;2022-07-29T19:45:30;3.15;;;2.00;;
43297;SDS011;28892;55.640;37.532;2022-07-29T19:47:56;6.70;;;2.50;;
43297;SDS011;28892;55.640;37.532;2022-07-29T19:50:22;3.05;;;2.10;;
43297;SDS011;28892;55.640;37.532;2022-07-29T19:52:50;4.38;;;2.20;;
43297;SDS011;28892;55.640;37.532;2022-07-29T19:55:16;5.35;;;2.20;;
43297;SDS011;28892;55.640;37.532;2022-07-29T19:57:42;4.47;;;2.30;;
43297;SDS011;28892;55.640;37.532;2022-07-29T20:00:08;6.00;;;2.20;;
43297;SDS011;28892;55.640;37.532;2022-07-29T20:02:36;5.32;;;2.30;;
43297;SDS011;28892;55.640;37.532;2022-07-29T20:05:02;2.85;;;1.98;;
43297;SDS011;28892;55.640;37.532;2022-07-29T20:07:28;3.97;;;2.20;;
43297;SDS011;28892;55.640;37.532;2022-07-29T20:09:54;3.63;;;1.92;;
43297;SDS011;28892;55.640;37.532;2022-07-29T20:12:20;3.90;;;1.90;;
43297;SDS011;28892;55.640;37.532;2022-07-29T20:14:47;6.18;;;1.85;;
43297;SDS011;28892;55.640;37.532;2022-07-29T20:17:13;2.95;;;1.83;;
43297;SDS011;28892;55.640;37.532;2022-07-29T20:19:39;4.82;;;1.77;;
43297;SDS011;28892;55.640;37.532;2022-07-29T20:22:07;5.13;;;3.33;;
43297;SDS011;28892;55.640;37.532;2022-07-29T20:24:33;5.88;;;2.30;;
43297;SDS011;28892;55.640;37.532;2022-07-29T20:26:59;4.10;;;2.25;;
43297;SDS011;28892;55.640;37.532;2022-07-29T20:29:25;5.50;;;2.20;;
43297;SDS011;28892;55.640;37.532;2022-07-29T20:31:51;4.82;;;2.25;;
43297;SDS011;28892;55.640;37.532;2022-07-29T20:34:17;3.75;;;2.20;;
43297;SDS011;28892;55.640;37.532;2022-07-29T20:36:43;3.78;;;2.70;;
43297;SDS011;28892;55.640;37.532;2022-07-29T20:39:08;9.30;;;2.72;;
43297;SDS011;28892;55.640;37.532;2022-07-29T20:41:34;5.53;;;2.40;;
43297;SDS011;28892;55.640;37.532;2022-07-29T20:44:00;3.50;;;2.40;;
43297;SDS011;28892;55.640;37.532;2022-07-29T20:46:27;4.75;;;2.47;;
43297;SDS011;28892;55.640;37.532;2022-07-29T20:48:53;10.35;;;2.45;;
43297;SDS011;28892;55.640;37.532;2022-07-29T20:51:19;9.48;;;2.83;;
43297;SDS011;28892;55.640;37.532;2022-07-29T20:53:45;6.53;;;2.50;;
43297;SDS011;28892;55.640;37.532;2022-07-29T20:56:11;5.03;;;2.30;;
43297;SDS011;28892;55.640;37.532;2022-07-29T20:58:37;9.00;;;2.55;;
43297;SDS011;28892;55.640;37.532;2022-07-29T21:01:05;4.03;;;2.60;;
43297;SDS011;28892;55.640;37.532;2022-07-29T21:03:31;7.63;;;2.83;;
43297;SDS011;28892;55.640;37.532;2022-07-29T21:05:57;5.85;;;2.50;;
43297;SDS011;28892;55.640;37.532;2022-07-29T21:08:23;3.38;;;2.42;;
43297;SDS011;28892;55.640;37.532;2022-07-29T21:10:50;6.40;;;2.30;;
43297;SDS011;28892;55.640;37.532;2022-07-29T21:13:17;3.55;;;2.60;;
43297;SDS011;28892;55.640;37.532;2022-07-29T21:15:45;4.65;;;3.15;;
43297;SDS011;28892;55.640;37.532;2022-07-29T21:18:14;7.35;;;3.03;;
43297;SDS011;28892;55.640;37.532;2022-07-29T21:20:52;3.67;;;3.20;;
43297;SDS011;28892;55.640;37.532;2022-07-29T21:23:18;7.38;;;3.53;;
43297;SDS011;28892;55.640;37.532;2022-07-29T21:25:44;6.20;;;3.22;;
43297;SDS011;28892;55.640;37.532;2022-07-29T21:28:09;5.32;;;3.22;;
43297;SDS011;28892;55.640;37.532;2022-07-29T21:31:02;6.85;;;2.95;;
43297;SDS011;28892;55.640;37.532;2022-07-29T21:33:29;7.32;;;4.22;;
43297;SDS011;28892;55.640;37.532;2022-07-29T21:35:55;4.55;;;3.30;;
43297;SDS011;28892;55.640;37.532;2022-07-29T21:38:21;5.18;;;2.60;;
43297;SDS011;28892;55.640;37.532;2022-07-29T21:40:48;4.20;;;3.13;;
43297;SDS011;28892;55.640;37.532;2022-07-29T21:43:14;2.90;;;2.50;;
43297;SDS011;28892;55.640;37.532;2022-07-29T21:45:42;6.72;;;2.40;;
43297;SDS011;28892;55.640;37.532;2022-07-29T21:48:08;3.15;;;2.50;;
43297;SDS011;28892;55.640;37.532;2022-07-29T21:50:34;3.83;;;2.47;;
43297;SDS011;28892;55.640;37.532;2022-07-29T21:53:00;4.50;;;2.75;;
43297;SDS011;28892;55.640;37.532;2022-07-29T21:55:26;4.95;;;2.70;;
43297;SDS011;28892;55.640;37.532;2022-07-29T21:57:55;7.88;;;2.72;;
43297;SDS011;28892;55.640;37.532;2022-07-29T22:00:22;2.95;;;2.65;;
43297;SDS011;28892;55.640;37.532;2022-07-29T22:02:50;3.35;;;2.40;;
43297;SDS011;28892;55.640;37.532;2022-07-29T22:05:18;4.30;;;2.60;;
43297;SDS011;28892;55.640;37.532;2022-07-29T22:07:45;4.18;;;2.60;;
43297;SDS011;28892;55.640;37.532;2022-07-29T22:10:13;4.07;;;2.53;;
43297;SDS011;28892;55.640;37.532;2022-07-29T22:12:39;6.10;;;2.55;;
43297;SDS011;28892;55.640;37.532;2022-07-29T22:15:05;4.18;;;2.53;;
43297;SDS011;28892;55.640;37.532;2022-07-29T22:17:32;3.13;;;2.55;;
43297;SDS011;28892;55.640;37.532;2022-07-29T22:19:58;4.35;;;2.40;;
43297;SDS011;28892;55.640;37.532;2022-07-29T22:22:24;6.00;;;2.45;;
43297;SDS011;28892;55.640;37.532;2022-07-29T22:24:49;5.20;;;2.70;;
43297;SDS011;28892;55.640;37.532;2022-07-29T22:27:15;4.20;;;2.53;;
43297;SDS011;28892;55.640;37.532;2022-07-29T22:29:41;5.55;;;2.58;;
43297;SDS011;28892;55.640;37.532;2022-07-29T22:32:06;4.80;;;2.13;;
43297;SDS011;28892;55.640;37.532;2022-07-29T22:34:32;4.93;;;2.25;;
43297;SDS011;28892;55.640;37.532;2022-07-29T22:36:59;6.10;;;2.65;;
43297;SDS011;28892;55.640;37.532;2022-07-29T22:39:25;2.70;;;2.17;;
43297;SDS011;28892;55.640;37.532;2022-07-29T22:41:51;4.97;;;2.47;;
43297;SDS011;28892;55.640;37.532;2022-07-29T22:44:16;4.95;;;2.20;;
43297;SDS011;28892;55.640;37.532;2022-07-29T22:46:42;3.22;;;2.05;;
43297;SDS011;28892;55.640;37.532;2022-07-29T22:49:08;3.47;;;2.00;;
43297;SDS011;28892;55.640;37.532;2022-07-29T22:51:34;5.68;;;2.30;;
43297;SDS011;28892;55.640;37.532;2022-07-29T22:54:00;4.88;;;3.50;;
43297;SDS011;28892;55.640;37.532;2022-07-29T22:56:26;5.05;;;2.28;;
43297;SDS011;28892;55.640;37.532;2022-07-29T22:58:52;3.55;;;2.28;;
43297;SDS011;28892;55.640;37.532;2022-07-29T23:01:19;6.95;;;2.42;;
43297;SDS011;28892;55.640;37.532;2022-07-29T23:03:46;5.55;;;2.13;;
43297;SDS011;28892;55.640;37.532;2022-07-29T23:06:12;4.38;;;2.30;;
43297;SDS011;28892;55.640;37.532;2022-07-29T23:08:39;2.83;;;2.10;;
43297;SDS011;28892;55.640;37.532;2022-07-29T23:11:05;2.35;;;1.70;;
43297;SDS011;28892;55.640;37.532;2022-07-29T23:13:31;4.30;;;1.92;;
43297;SDS011;28892;55.640;37.532;2022-07-29T23:15:57;5.90;;;2.15;;
43297;SDS011;28892;55.640;37.532;2022-07-29T23:18:23;4.35;;;2.30;;
43297;SDS011;28892;55.640;37.532;2022-07-29T23:20:49;2.72;;;2.42;;
43297;SDS011;28892;55.640;37.532;2022-07-29T23:23:15;2.97;;;2.13;;
43297;SDS011;28892;55.640;37.532;2022-07-29T23:25:41;3.63;;;1.90;;
43297;SDS011;28892;55.640;37.532;2022-07-29T23:28:06;5.82;;;2.10;;
43297;SDS011;28892;55.640;37.532;2022-07-29T23:30:33;4.57;;;2.20;;
43297;SDS011;28892;55.640;37.532;2022-07-29T23:32:58;2.20;;;1.90;;
43297;SDS011;28892;55.640;37.532;2022-07-29T23:35:24;3.50;;;2.30;;
43297;SDS011;28892;55.640;37.532;2022-07-29T23:37:50;3.33;;;1.80;;
43297;SDS011;28892;55.640;37.532;2022-07-29T23:40:16;2.63;;;2.00;;
43297;SDS011;28892;55.640;37.532;2022-07-29T23:42:42;4.30;;;1.88;;
43297;SDS011;28892;55.640;37.532;2022-07-29T23:45:09;2.33;;;2.13;;
43297;SDS011;28892;55.640;37.532;2022-07-29T23:47:36;4.47;;;2.00;;
43297;SDS011;28892;55.640;37.532;2022-07-29T23:50:02;3.47;;;1.90;;
43297;SDS011;28892;55.640;37.532;2022-07-29T23:52:29;3.55;;;2.05;;
43297;SDS011;28892;55.640;37.532;2022-07-29T23:54:55;2.53;;;1.67;;
43297;SDS011;28892;55.640;37.532;2022-07-29T23:57:20;3.85;;;2.10;;
43297;SDS011;28892;55.640;37.532;2022-07-29T23:59:48;2.83;;;2.05;;
